sensor_id;sensor_type;location;lat;lon;timestamp;P1;durP1;ratioP1;P2;durP2;ratioP2
9388;SDS011;4734;52.778;6.798;2022-09-09T00:01:15;4.57;;;2.58;;
9388;SDS011;4734;52.778;6.798;2022-09-09T00:04:05;2.97;;;2.35;;
9388;SDS011;4734;52.778;6.798;2022-09-09T00:06:57;5.50;;;2.90;;
9388;SDS011;4734;52.778;6.798;2022-09-09T00:09:46;4.63;;;3.08;;
9388;SDS011;4734;52.778;6.798;2022-09-09T00:12:34;7.30;;;3.72;;
9388;SDS011;4734;52.778;6.798;2022-09-09T00:15:22;5.13;;;3.15;;
9388;SDS011;4734;52.778;6.798;2022-09-09T00:18:13;3.67;;;2.97;;
9388;SDS011;4734;52.778;6.798;2022-09-09T00:21:01;6.75;;;3.50;;
9388;SDS011;4734;52.778;6.798;2022-09-09T00:23:51;5.72;;;2.97;;
9388;SDS011;4734;52.778;6.798;2022-09-09T00:26:39;4.03;;;3.08;;
9388;SDS011;4734;52.778;6.798;2022-09-09T00:29:28;2.65;;;1.92;;
9388;SDS011;4734;52.778;6.798;2022-09-09T00:32:19;3.30;;;2.63;;
9388;SDS011;4734;52.778;6.798;2022-09-09T00:35:12;3.78;;;3.08;;
9388;SDS011;4734;52.778;6.798;2022-09-09T00:38:03;6.95;;;3.33;;
9388;SDS011;4734;52.778;6.798;2022-09-09T00:40:52;3.78;;;3.33;;
9388;SDS011;4734;52.778;6.798;2022-09-09T00:43:40;3.83;;;3.45;;
9388;SDS011;4734;52.778;6.798;2022-09-09T00:46:32;4.00;;;2.58;;
9388;SDS011;4734;52.778;6.798;2022-09-09T00:49:22;3.90;;;2.58;;
9388;SDS011;4734;52.778;6.798;2022-09-09T00:52:13;3.88;;;3.20;;
9388;SDS011;4734;52.778;6.798;2022-09-09T00:55:05;5.03;;;3.55;;
9388;SDS011;4734;52.778;6.798;2022-09-09T00:57:51;6.97;;;4.20;;
9388;SDS011;4734;52.778;6.798;2022-09-09T01:00:39;4.30;;;3.80;;
9388;SDS011;4734;52.778;6.798;2022-09-09T01:03:31;5.75;;;3.90;;
9388;SDS011;4734;52.778;6.798;2022-09-09T01:06:20;5.40;;;3.78;;
9388;SDS011;4734;52.778;6.798;2022-09-09T01:09:10;5.65;;;4.03;;
9388;SDS011;4734;52.778;6.798;2022-09-09T01:11:58;6.65;;;3.90;;
9388;SDS011;4734;52.778;6.798;2022-09-09T01:14:45;4.95;;;3.70;;
9388;SDS011;4734;52.778;6.798;2022-09-09T01:17:35;4.13;;;3.80;;
9388;SDS011;4734;52.778;6.798;2022-09-09T01:20:24;5.88;;;3.63;;
9388;SDS011;4734;52.778;6.798;2022-09-09T01:23:15;8.73;;;3.92;;
9388;SDS011;4734;52.778;6.798;2022-09-09T01:26:11;6.10;;;3.88;;
9388;SDS011;4734;52.778;6.798;2022-09-09T01:28:59;4.78;;;3.85;;
9388;SDS011;4734;52.778;6.798;2022-09-09T01:31:52;4.55;;;3.58;;
9388;SDS011;4734;52.778;6.798;2022-09-09T01:34:38;3.80;;;3.45;;
9388;SDS011;4734;52.778;6.798;2022-09-09T01:37:26;6.82;;;3.85;;
9388;SDS011;4734;52.778;6.798;2022-09-09T01:40:11;7.03;;;3.83;;
9388;SDS011;4734;52.778;6.798;2022-09-09T01:42:59;5.53;;;3.63;;
9388;SDS011;4734;52.778;6.798;2022-09-09T01:45:45;6.57;;;4.15;;
9388;SDS011;4734;52.778;6.798;2022-09-09T01:48:32;4.82;;;4.05;;
9388;SDS011;4734;52.778;6.798;2022-09-09T01:51:18;5.00;;;4.03;;
9388;SDS011;4734;52.778;6.798;2022-09-09T01:54:03;6.07;;;4.30;;
9388;SDS011;4734;52.778;6.798;2022-09-09T01:56:52;6.55;;;3.83;;
9388;SDS011;4734;52.778;6.798;2022-09-09T01:59:45;6.13;;;4.45;;
9388;SDS011;4734;52.778;6.798;2022-09-09T02:02:35;4.10;;;3.70;;
9388;SDS011;4734;52.778;6.798;2022-09-09T02:05:25;4.15;;;3.70;;
9388;SDS011;4734;52.778;6.798;2022-09-09T02:08:14;5.15;;;3.80;;
9388;SDS011;4734;52.778;6.798;2022-09-09T02:11:03;4.68;;;4.28;;
9388;SDS011;4734;52.778;6.798;2022-09-09T02:13:52;6.13;;;4.43;;
9388;SDS011;4734;52.778;6.798;2022-09-09T02:16:42;5.45;;;4.15;;
9388;SDS011;4734;52.778;6.798;2022-09-09T02:19:29;7.63;;;4.45;;
9388;SDS011;4734;52.778;6.798;2022-09-09T02:22:17;8.35;;;5.18;;
9388;SDS011;4734;52.778;6.798;2022-09-09T02:25:05;8.20;;;3.95;;
9388;SDS011;4734;52.778;6.798;2022-09-09T02:27:52;5.72;;;4.05;;
9388;SDS011;4734;52.778;6.798;2022-09-09T02:30:38;5.20;;;4.15;;
9388;SDS011;4734;52.778;6.798;2022-09-09T02:33:27;7.95;;;4.50;;
9388;SDS011;4734;52.778;6.798;2022-09-09T02:36:14;4.65;;;4.22;;
9388;SDS011;4734;52.778;6.798;2022-09-09T02:39:01;4.50;;;4.10;;
9388;SDS011;4734;52.778;6.798;2022-09-09T02:41:47;6.60;;;3.83;;
9388;SDS011;4734;52.778;6.798;2022-09-09T02:44:32;6.70;;;4.35;;
9388;SDS011;4734;52.778;6.798;2022-09-09T02:47:29;7.22;;;4.50;;
9388;SDS011;4734;52.778;6.798;2022-09-09T02:50:19;6.05;;;4.70;;
9388;SDS011;4734;52.778;6.798;2022-09-09T02:53:07;5.93;;;4.18;;
9388;SDS011;4734;52.778;6.798;2022-09-09T02:55:55;4.53;;;4.05;;
9388;SDS011;4734;52.778;6.798;2022-09-09T02:58:43;4.18;;;3.75;;
9388;SDS011;4734;52.778;6.798;2022-09-09T03:01:29;3.50;;;3.20;;
9388;SDS011;4734;52.778;6.798;2022-09-09T03:04:15;4.72;;;3.35;;
9388;SDS011;4734;52.778;6.798;2022-09-09T03:07:02;3.45;;;3.10;;
9388;SDS011;4734;52.778;6.798;2022-09-09T03:09:48;3.72;;;2.80;;
9388;SDS011;4734;52.778;6.798;2022-09-09T03:12:34;3.30;;;3.00;;
9388;SDS011;4734;52.778;6.798;2022-09-09T03:15:20;4.28;;;2.85;;
9388;SDS011;4734;52.778;6.798;2022-09-09T03:18:05;2.75;;;2.47;;
9388;SDS011;4734;52.778;6.798;2022-09-09T03:20:51;3.00;;;2.42;;
9388;SDS011;4734;52.778;6.798;2022-09-09T03:23:39;4.90;;;2.28;;
9388;SDS011;4734;52.778;6.798;2022-09-09T03:26:24;2.50;;;2.30;;
9388;SDS011;4734;52.778;6.798;2022-09-09T03:29:10;3.67;;;1.95;;
9388;SDS011;4734;52.778;6.798;2022-09-09T03:31:57;2.30;;;1.98;;
9388;SDS011;4734;52.778;6.798;2022-09-09T03:34:42;2.83;;;1.75;;
9388;SDS011;4734;52.778;6.798;2022-09-09T03:37:28;2.00;;;1.45;;
9388;SDS011;4734;52.778;6.798;2022-09-09T03:40:17;2.05;;;1.52;;
9388;SDS011;4734;52.778;6.798;2022-09-09T03:43:02;2.60;;;1.70;;
9388;SDS011;4734;52.778;6.798;2022-09-09T03:45:48;1.60;;;1.50;;
9388;SDS011;4734;52.778;6.798;2022-09-09T03:48:34;4.60;;;2.80;;
9388;SDS011;4734;52.778;6.798;2022-09-09T03:51:20;2.63;;;2.42;;
9388;SDS011;4734;52.778;6.798;2022-09-09T03:54:06;6.05;;;3.10;;
9388;SDS011;4734;52.778;6.798;2022-09-09T03:56:55;5.28;;;4.00;;
9388;SDS011;4734;52.778;6.798;2022-09-09T03:59:41;6.00;;;3.95;;
9388;SDS011;4734;52.778;6.798;2022-09-09T04:02:27;4.88;;;4.40;;
9388;SDS011;4734;52.778;6.798;2022-09-09T04:05:13;5.68;;;4.97;;
9388;SDS011;4734;52.778;6.798;2022-09-09T04:07:59;5.55;;;5.03;;
9388;SDS011;4734;52.778;6.798;2022-09-09T04:10:45;7.53;;;5.10;;
9388;SDS011;4734;52.778;6.798;2022-09-09T04:13:33;7.75;;;5.43;;
9388;SDS011;4734;52.778;6.798;2022-09-09T04:16:19;7.65;;;6.10;;
9388;SDS011;4734;52.778;6.798;2022-09-09T04:19:05;6.32;;;5.32;;
9388;SDS011;4734;52.778;6.798;2022-09-09T04:21:51;8.45;;;5.45;;
9388;SDS011;4734;52.778;6.798;2022-09-09T04:24:37;6.90;;;5.75;;
9388;SDS011;4734;52.778;6.798;2022-09-09T04:27:22;5.82;;;5.10;;
9388;SDS011;4734;52.778;6.798;2022-09-09T04:30:11;6.03;;;5.25;;
9388;SDS011;4734;52.778;6.798;2022-09-09T04:32:56;6.35;;;5.85;;
9388;SDS011;4734;52.778;6.798;2022-09-09T04:35:43;8.48;;;5.43;;
9388;SDS011;4734;52.778;6.798;2022-09-09T04:38:30;5.97;;;5.38;;
9388;SDS011;4734;52.778;6.798;2022-09-09T04:41:16;6.10;;;5.53;;
9388;SDS011;4734;52.778;6.798;2022-09-09T04:44:02;5.38;;;4.88;;
9388;SDS011;4734;52.778;6.798;2022-09-09T04:46:49;5.72;;;4.65;;
9388;SDS011;4734;52.778;6.798;2022-09-09T04:49:35;5.15;;;4.75;;
9388;SDS011;4734;52.778;6.798;2022-09-09T04:52:22;7.13;;;4.13;;
9388;SDS011;4734;52.778;6.798;2022-09-09T04:55:08;4.97;;;4.57;;
9388;SDS011;4734;52.778;6.798;2022-09-09T04:57:54;5.63;;;4.72;;
9388;SDS011;4734;52.778;6.798;2022-09-09T05:00:40;5.15;;;4.65;;
9388;SDS011;4734;52.778;6.798;2022-09-09T05:03:27;4.53;;;4.20;;
9388;SDS011;4734;52.778;6.798;2022-09-09T05:06:13;5.88;;;4.43;;
9388;SDS011;4734;52.778;6.798;2022-09-09T05:09:00;4.35;;;4.00;;
9388;SDS011;4734;52.778;6.798;2022-09-09T05:11:45;5.50;;;4.30;;
9388;SDS011;4734;52.778;6.798;2022-09-09T05:14:32;4.60;;;4.20;;
9388;SDS011;4734;52.778;6.798;2022-09-09T05:17:20;4.55;;;4.10;;
9388;SDS011;4734;52.778;6.798;2022-09-09T05:20:07;3.92;;;3.72;;
9388;SDS011;4734;52.778;6.798;2022-09-09T05:22:53;5.50;;;4.07;;
9388;SDS011;4734;52.778;6.798;2022-09-09T05:25:39;4.40;;;3.83;;
9388;SDS011;4734;52.778;6.798;2022-09-09T05:28:25;6.90;;;4.03;;
9388;SDS011;4734;52.778;6.798;2022-09-09T05:31:12;5.30;;;4.15;;
9388;SDS011;4734;52.778;6.798;2022-09-09T05:33:58;4.93;;;4.47;;
9388;SDS011;4734;52.778;6.798;2022-09-09T05:36:45;5.20;;;4.10;;
9388;SDS011;4734;52.778;6.798;2022-09-09T05:39:31;3.83;;;3.60;;
9388;SDS011;4734;52.778;6.798;2022-09-09T05:42:17;4.28;;;3.67;;
9388;SDS011;4734;52.778;6.798;2022-09-09T05:45:03;4.05;;;3.70;;
9388;SDS011;4734;52.778;6.798;2022-09-09T05:47:51;4.60;;;4.22;;
9388;SDS011;4734;52.778;6.798;2022-09-09T05:50:37;4.72;;;3.70;;
9388;SDS011;4734;52.778;6.798;2022-09-09T05:53:24;6.30;;;3.90;;
9388;SDS011;4734;52.778;6.798;2022-09-09T05:56:11;4.30;;;3.60;;
9388;SDS011;4734;52.778;6.798;2022-09-09T05:58:57;4.07;;;3.50;;
9388;SDS011;4734;52.778;6.798;2022-09-09T06:01:43;5.68;;;3.85;;
9388;SDS011;4734;52.778;6.798;2022-09-09T06:04:30;4.00;;;3.63;;
9388;SDS011;4734;52.778;6.798;2022-09-09T06:07:15;4.50;;;3.70;;
9388;SDS011;4734;52.778;6.798;2022-09-09T06:10:03;4.20;;;3.80;;
9388;SDS011;4734;52.778;6.798;2022-09-09T06:12:52;4.75;;;3.78;;
9388;SDS011;4734;52.778;6.798;2022-09-09T06:15:38;4.88;;;3.85;;
9388;SDS011;4734;52.778;6.798;2022-09-09T06:18:24;3.72;;;3.33;;
9388;SDS011;4734;52.778;6.798;2022-09-09T06:21:15;3.83;;;3.53;;
9388;SDS011;4734;52.778;6.798;2022-09-09T06:24:02;3.97;;;3.65;;
9388;SDS011;4734;52.778;6.798;2022-09-09T06:26:49;3.65;;;3.35;;
9388;SDS011;4734;52.778;6.798;2022-09-09T06:29:35;4.40;;;3.90;;
9388;SDS011;4734;52.778;6.798;2022-09-09T06:32:20;5.00;;;3.40;;
9388;SDS011;4734;52.778;6.798;2022-09-09T06:35:06;5.82;;;3.47;;
9388;SDS011;4734;52.778;6.798;2022-09-09T06:37:53;3.63;;;3.33;;
9388;SDS011;4734;52.778;6.798;2022-09-09T06:40:38;3.78;;;3.35;;
9388;SDS011;4734;52.778;6.798;2022-09-09T06:43:26;3.97;;;3.67;;
9388;SDS011;4734;52.778;6.798;2022-09-09T06:46:13;7.03;;;3.55;;
9388;SDS011;4734;52.778;6.798;2022-09-09T06:48:59;5.20;;;3.72;;
9388;SDS011;4734;52.778;6.798;2022-09-09T06:51:46;4.53;;;3.70;;
9388;SDS011;4734;52.778;6.798;2022-09-09T06:54:33;4.38;;;3.80;;
9388;SDS011;4734;52.778;6.798;2022-09-09T06:57:21;5.35;;;3.85;;
9388;SDS011;4734;52.778;6.798;2022-09-09T07:00:08;5.22;;;4.20;;
9388;SDS011;4734;52.778;6.798;2022-09-09T07:02:55;4.68;;;4.15;;
9388;SDS011;4734;52.778;6.798;2022-09-09T07:05:40;5.50;;;3.92;;
9388;SDS011;4734;52.778;6.798;2022-09-09T07:08:28;7.53;;;4.43;;
9388;SDS011;4734;52.778;6.798;2022-09-09T07:11:14;4.53;;;3.92;;
9388;SDS011;4734;52.778;6.798;2022-09-09T07:14:00;7.00;;;3.70;;
9388;SDS011;4734;52.778;6.798;2022-09-09T07:16:48;9.52;;;4.30;;
9388;SDS011;4734;52.778;6.798;2022-09-09T07:19:33;5.20;;;4.00;;
9388;SDS011;4734;52.778;6.798;2022-09-09T07:22:21;4.75;;;3.95;;
9388;SDS011;4734;52.778;6.798;2022-09-09T07:25:07;5.35;;;3.75;;
9388;SDS011;4734;52.778;6.798;2022-09-09T07:27:53;4.72;;;3.58;;
9388;SDS011;4734;52.778;6.798;2022-09-09T07:30:39;3.63;;;3.22;;
9388;SDS011;4734;52.778;6.798;2022-09-09T07:33:26;8.27;;;3.60;;
9388;SDS011;4734;52.778;6.798;2022-09-09T07:36:14;4.53;;;3.38;;
9388;SDS011;4734;52.778;6.798;2022-09-09T07:39:01;5.80;;;3.35;;
9388;SDS011;4734;52.778;6.798;2022-09-09T07:41:47;4.93;;;3.40;;
9388;SDS011;4734;52.778;6.798;2022-09-09T07:44:34;8.68;;;3.83;;
9388;SDS011;4734;52.778;6.798;2022-09-09T07:47:20;6.13;;;3.30;;
9388;SDS011;4734;52.778;6.798;2022-09-09T07:50:10;4.50;;;3.40;;
9388;SDS011;4734;52.778;6.798;2022-09-09T07:52:56;4.25;;;3.33;;
9388;SDS011;4734;52.778;6.798;2022-09-09T07:55:42;4.88;;;3.63;;
9388;SDS011;4734;52.778;6.798;2022-09-09T07:58:28;7.03;;;3.85;;
9388;SDS011;4734;52.778;6.798;2022-09-09T08:01:15;4.40;;;3.28;;
9388;SDS011;4734;52.778;6.798;2022-09-09T08:04:02;4.05;;;3.40;;
9388;SDS011;4734;52.778;6.798;2022-09-09T08:06:50;4.40;;;3.15;;
9388;SDS011;4734;52.778;6.798;2022-09-09T08:09:36;4.47;;;3.30;;
9388;SDS011;4734;52.778;6.798;2022-09-09T08:12:22;5.45;;;3.58;;
9388;SDS011;4734;52.778;6.798;2022-09-09T08:15:08;4.38;;;3.38;;
9388;SDS011;4734;52.778;6.798;2022-09-09T08:17:54;7.47;;;3.58;;
9388;SDS011;4734;52.778;6.798;2022-09-09T08:20:41;5.18;;;3.42;;
9388;SDS011;4734;52.778;6.798;2022-09-09T08:23:29;6.00;;;3.30;;
9388;SDS011;4734;52.778;6.798;2022-09-09T08:26:15;5.40;;;3.33;;
9388;SDS011;4734;52.778;6.798;2022-09-09T08:29:03;5.38;;;3.72;;
9388;SDS011;4734;52.778;6.798;2022-09-09T08:31:50;5.75;;;3.50;;
9388;SDS011;4734;52.778;6.798;2022-09-09T08:34:38;4.30;;;3.25;;
9388;SDS011;4734;52.778;6.798;2022-09-09T08:37:23;7.80;;;2.97;;
9388;SDS011;4734;52.778;6.798;2022-09-09T08:40:11;6.82;;;3.40;;
9388;SDS011;4734;52.778;6.798;2022-09-09T08:43:03;5.50;;;3.38;;
9388;SDS011;4734;52.778;6.798;2022-09-09T08:45:50;11.90;;;3.67;;
9388;SDS011;4734;52.778;6.798;2022-09-09T08:48:43;10.18;;;3.40;;
9388;SDS011;4734;52.778;6.798;2022-09-09T08:51:32;8.27;;;3.15;;
9388;SDS011;4734;52.778;6.798;2022-09-09T08:54:19;5.97;;;3.30;;
9388;SDS011;4734;52.778;6.798;2022-09-09T08:57:07;5.50;;;3.20;;
9388;SDS011;4734;52.778;6.798;2022-09-09T08:59:55;8.23;;;3.70;;
9388;SDS011;4734;52.778;6.798;2022-09-09T09:02:42;8.57;;;3.20;;
9388;SDS011;4734;52.778;6.798;2022-09-09T09:05:31;6.38;;;3.15;;
9388;SDS011;4734;52.778;6.798;2022-09-09T09:08:20;4.95;;;2.65;;
9388;SDS011;4734;52.778;6.798;2022-09-09T09:11:10;6.03;;;2.65;;
9388;SDS011;4734;52.778;6.798;2022-09-09T09:13:59;7.15;;;3.15;;
9388;SDS011;4734;52.778;6.798;2022-09-09T09:16:48;5.97;;;2.90;;
9388;SDS011;4734;52.778;6.798;2022-09-09T09:19:38;7.45;;;2.85;;
9388;SDS011;4734;52.778;6.798;2022-09-09T09:22:26;7.43;;;2.97;;
9388;SDS011;4734;52.778;6.798;2022-09-09T09:25:17;4.95;;;2.63;;
9388;SDS011;4734;52.778;6.798;2022-09-09T09:28:07;5.18;;;2.47;;
9388;SDS011;4734;52.778;6.798;2022-09-09T09:30:57;7.55;;;3.05;;
9388;SDS011;4734;52.778;6.798;2022-09-09T09:33:47;6.75;;;2.80;;
9388;SDS011;4734;52.778;6.798;2022-09-09T09:36:34;8.65;;;3.17;;
9388;SDS011;4734;52.778;6.798;2022-09-09T09:39:24;7.38;;;2.67;;
9388;SDS011;4734;52.778;6.798;2022-09-09T09:42:11;5.20;;;2.60;;
9388;SDS011;4734;52.778;6.798;2022-09-09T09:45:06;6.15;;;2.55;;
9388;SDS011;4734;52.778;6.798;2022-09-09T09:47:58;7.72;;;2.28;;
9388;SDS011;4734;52.778;6.798;2022-09-09T09:50:46;4.53;;;2.10;;
9388;SDS011;4734;52.778;6.798;2022-09-09T09:53:34;3.15;;;2.00;;
9388;SDS011;4734;52.778;6.798;2022-09-09T09:56:26;7.00;;;2.33;;
9388;SDS011;4734;52.778;6.798;2022-09-09T09:59:19;6.38;;;2.10;;
9388;SDS011;4734;52.778;6.798;2022-09-09T10:02:10;6.25;;;2.00;;
9388;SDS011;4734;52.778;6.798;2022-09-09T10:05:04;6.55;;;2.10;;
9388;SDS011;4734;52.778;6.798;2022-09-09T10:08:00;5.78;;;2.70;;
9388;SDS011;4734;52.778;6.798;2022-09-09T10:10:52;5.20;;;2.42;;
9388;SDS011;4734;52.778;6.798;2022-09-09T10:13:44;7.22;;;2.72;;
9388;SDS011;4734;52.778;6.798;2022-09-09T10:16:37;6.10;;;2.33;;
9388;SDS011;4734;52.778;6.798;2022-09-09T10:19:28;5.93;;;2.50;;
9388;SDS011;4734;52.778;6.798;2022-09-09T10:22:21;8.48;;;2.15;;
9388;SDS011;4734;52.778;6.798;2022-09-09T10:25:20;7.50;;;2.15;;
9388;SDS011;4734;52.778;6.798;2022-09-09T10:28:20;5.18;;;2.20;;
9388;SDS011;4734;52.778;6.798;2022-09-09T10:31:12;5.03;;;2.22;;
9388;SDS011;4734;52.778;6.798;2022-09-09T10:34:03;8.20;;;2.08;;
9388;SDS011;4734;52.778;6.798;2022-09-09T10:36:52;3.75;;;1.90;;
9388;SDS011;4734;52.778;6.798;2022-09-09T10:39:46;8.48;;;2.40;;
9388;SDS011;4734;52.778;6.798;2022-09-09T10:42:32;5.75;;;2.28;;
9388;SDS011;4734;52.778;6.798;2022-09-09T10:45:21;5.22;;;2.22;;
9388;SDS011;4734;52.778;6.798;2022-09-09T10:48:12;7.60;;;2.10;;
9388;SDS011;4734;52.778;6.798;2022-09-09T10:51:05;6.25;;;1.92;;
9388;SDS011;4734;52.778;6.798;2022-09-09T10:54:02;7.65;;;1.77;;
9388;SDS011;4734;52.778;6.798;2022-09-09T10:56:54;4.82;;;2.25;;
9388;SDS011;4734;52.778;6.798;2022-09-09T10:59:42;7.13;;;1.67;;
9388;SDS011;4734;52.778;6.798;2022-09-09T11:02:28;4.93;;;1.70;;
9388;SDS011;4734;52.778;6.798;2022-09-09T11:05:16;4.15;;;1.58;;
9388;SDS011;4734;52.778;6.798;2022-09-09T11:08:04;5.10;;;1.85;;
9388;SDS011;4734;52.778;6.798;2022-09-09T11:10:53;4.47;;;1.52;;
9388;SDS011;4734;52.778;6.798;2022-09-09T11:13:44;5.10;;;1.80;;
9388;SDS011;4734;52.778;6.798;2022-09-09T11:16:33;4.63;;;1.80;;
9388;SDS011;4734;52.778;6.798;2022-09-09T11:19:24;5.38;;;1.90;;
9388;SDS011;4734;52.778;6.798;2022-09-09T11:22:16;6.13;;;1.77;;
9388;SDS011;4734;52.778;6.798;2022-09-09T11:25:04;3.70;;;1.60;;
9388;SDS011;4734;52.778;6.798;2022-09-09T11:28:02;5.28;;;1.63;;
9388;SDS011;4734;52.778;6.798;2022-09-09T11:30:57;4.72;;;1.67;;
9388;SDS011;4734;52.778;6.798;2022-09-09T11:33:49;6.47;;;1.98;;
9388;SDS011;4734;52.778;6.798;2022-09-09T11:39:56;7.75;;;2.00;;
9388;SDS011;4734;52.778;6.798;2022-09-09T11:42:44;3.58;;;1.70;;
9388;SDS011;4734;52.778;6.798;2022-09-09T11:45:32;4.22;;;1.70;;
9388;SDS011;4734;52.778;6.798;2022-09-09T11:48:25;5.75;;;1.70;;
9388;SDS011;4734;52.778;6.798;2022-09-09T11:51:13;6.07;;;1.70;;
9388;SDS011;4734;52.778;6.798;2022-09-09T11:53:59;4.63;;;1.67;;
9388;SDS011;4734;52.778;6.798;2022-09-09T11:56:46;4.53;;;1.35;;
9388;SDS011;4734;52.778;6.798;2022-09-09T11:59:32;4.53;;;1.70;;
9388;SDS011;4734;52.778;6.798;2022-09-09T12:02:21;5.38;;;1.73;;
9388;SDS011;4734;52.778;6.798;2022-09-09T12:05:10;6.38;;;1.65;;
9388;SDS011;4734;52.778;6.798;2022-09-09T12:07:57;5.05;;;1.67;;
9388;SDS011;4734;52.778;6.798;2022-09-09T12:10:52;6.43;;;1.70;;
9388;SDS011;4734;52.778;6.798;2022-09-09T12:13:38;2.80;;;1.50;;
9388;SDS011;4734;52.778;6.798;2022-09-09T12:16:30;5.38;;;1.98;;
9388;SDS011;4734;52.778;6.798;2022-09-09T12:19:18;5.05;;;1.55;;
9388;SDS011;4734;52.778;6.798;2022-09-09T12:22:07;5.05;;;1.77;;
9388;SDS011;4734;52.778;6.798;2022-09-09T12:24:57;4.72;;;1.48;;
9388;SDS011;4734;52.778;6.798;2022-09-09T12:27:46;5.10;;;1.73;;
9388;SDS011;4734;52.778;6.798;2022-09-09T12:30:39;3.13;;;1.55;;
9388;SDS011;4734;52.778;6.798;2022-09-09T12:33:33;3.72;;;1.40;;
9388;SDS011;4734;52.778;6.798;2022-09-09T12:36:19;2.92;;;1.50;;
9388;SDS011;4734;52.778;6.798;2022-09-09T12:42:18;5.80;;;1.75;;
9388;SDS011;4734;52.778;6.798;2022-09-09T12:45:14;4.95;;;1.80;;
9388;SDS011;4734;52.778;6.798;2022-09-09T12:48:02;5.15;;;1.80;;
9388;SDS011;4734;52.778;6.798;2022-09-09T12:50:50;4.93;;;1.90;;
9388;SDS011;4734;52.778;6.798;2022-09-09T12:53:36;3.88;;;1.65;;
9388;SDS011;4734;52.778;6.798;2022-09-09T12:56:24;3.70;;;1.70;;
9388;SDS011;4734;52.778;6.798;2022-09-09T12:59:21;6.60;;;1.88;;
9388;SDS011;4734;52.778;6.798;2022-09-09T13:05:13;5.82;;;2.20;;
9388;SDS011;4734;52.778;6.798;2022-09-09T13:08:00;4.60;;;1.80;;
9388;SDS011;4734;52.778;6.798;2022-09-09T13:10:48;3.60;;;1.70;;
9388;SDS011;4734;52.778;6.798;2022-09-09T13:13:38;5.50;;;1.70;;
9388;SDS011;4734;52.778;6.798;2022-09-09T13:16:26;5.63;;;2.10;;
9388;SDS011;4734;52.778;6.798;2022-09-09T13:19:15;4.43;;;1.67;;
9388;SDS011;4734;52.778;6.798;2022-09-09T13:22:10;6.28;;;1.90;;
9388;SDS011;4734;52.778;6.798;2022-09-09T13:25:00;5.03;;;1.83;;
9388;SDS011;4734;52.778;6.798;2022-09-09T13:30:55;5.20;;;1.65;;
9388;SDS011;4734;52.778;6.798;2022-09-09T13:33:44;4.40;;;1.50;;
9388;SDS011;4734;52.778;6.798;2022-09-09T13:36:31;7.38;;;1.77;;
9388;SDS011;4734;52.778;6.798;2022-09-09T13:39:18;4.38;;;1.70;;
9388;SDS011;4734;52.778;6.798;2022-09-09T13:42:04;5.00;;;2.13;;
9388;SDS011;4734;52.778;6.798;2022-09-09T13:44:50;3.72;;;1.67;;
9388;SDS011;4734;52.778;6.798;2022-09-09T13:47:37;5.88;;;1.70;;
9388;SDS011;4734;52.778;6.798;2022-09-09T13:50:24;3.35;;;1.77;;
9388;SDS011;4734;52.778;6.798;2022-09-09T13:53:10;4.22;;;1.30;;
9388;SDS011;4734;52.778;6.798;2022-09-09T13:55:56;3.38;;;1.23;;
9388;SDS011;4734;52.778;6.798;2022-09-09T13:58:43;3.60;;;1.40;;
9388;SDS011;4734;52.778;6.798;2022-09-09T14:01:28;3.08;;;1.42;;
9388;SDS011;4734;52.778;6.798;2022-09-09T14:04:15;1.80;;;1.13;;
9388;SDS011;4734;52.778;6.798;2022-09-09T14:07:02;5.80;;;1.55;;
9388;SDS011;4734;52.778;6.798;2022-09-09T14:09:48;3.67;;;1.65;;
9388;SDS011;4734;52.778;6.798;2022-09-09T14:12:35;5.05;;;1.55;;
9388;SDS011;4734;52.778;6.798;2022-09-09T14:15:21;4.63;;;1.00;;
9388;SDS011;4734;52.778;6.798;2022-09-09T14:18:09;0.93;;;0.80;;
9388;SDS011;4734;52.778;6.798;2022-09-09T14:20:55;3.15;;;0.88;;
9388;SDS011;4734;52.778;6.798;2022-09-09T14:23:42;1.55;;;0.70;;
9388;SDS011;4734;52.778;6.798;2022-09-09T14:26:28;3.10;;;0.88;;
9388;SDS011;4734;52.778;6.798;2022-09-09T14:29:14;1.67;;;0.90;;
9388;SDS011;4734;52.778;6.798;2022-09-09T14:32:00;2.67;;;0.90;;
9388;SDS011;4734;52.778;6.798;2022-09-09T14:34:45;0.85;;;0.70;;
9388;SDS011;4734;52.778;6.798;2022-09-09T14:37:33;1.02;;;0.80;;
9388;SDS011;4734;52.778;6.798;2022-09-09T14:40:20;2.92;;;0.77;;
9388;SDS011;4734;52.778;6.798;2022-09-09T14:43:06;5.32;;;1.08;;
9388;SDS011;4734;52.778;6.798;2022-09-09T14:45:52;0.95;;;0.82;;
9388;SDS011;4734;52.778;6.798;2022-09-09T14:48:37;0.63;;;0.63;;
9388;SDS011;4734;52.778;6.798;2022-09-09T14:51:24;1.95;;;0.90;;
9388;SDS011;4734;52.778;6.798;2022-09-09T14:54:11;1.92;;;1.10;;
9388;SDS011;4734;52.778;6.798;2022-09-09T14:56:59;1.90;;;1.30;;
9388;SDS011;4734;52.778;6.798;2022-09-09T14:59:46;2.00;;;1.40;;
9388;SDS011;4734;52.778;6.798;2022-09-09T15:02:34;2.28;;;1.10;;
9388;SDS011;4734;52.778;6.798;2022-09-09T15:05:20;3.15;;;1.55;;
9388;SDS011;4734;52.778;6.798;2022-09-09T15:08:05;3.30;;;1.55;;
9388;SDS011;4734;52.778;6.798;2022-09-09T15:10:58;1.50;;;1.15;;
9388;SDS011;4734;52.778;6.798;2022-09-09T15:13:45;2.80;;;1.42;;
9388;SDS011;4734;52.778;6.798;2022-09-09T15:16:32;1.92;;;1.30;;
9388;SDS011;4734;52.778;6.798;2022-09-09T15:19:17;4.07;;;1.27;;
9388;SDS011;4734;52.778;6.798;2022-09-09T15:22:03;1.60;;;1.30;;
9388;SDS011;4734;52.778;6.798;2022-09-09T15:24:50;2.42;;;1.50;;
9388;SDS011;4734;52.778;6.798;2022-09-09T15:27:36;1.38;;;1.20;;
9388;SDS011;4734;52.778;6.798;2022-09-09T15:30:24;1.60;;;1.27;;
9388;SDS011;4734;52.778;6.798;2022-09-09T15:33:13;2.08;;;1.60;;
9388;SDS011;4734;52.778;6.798;2022-09-09T15:36:00;2.10;;;1.45;;
9388;SDS011;4734;52.778;6.798;2022-09-09T15:38:46;1.92;;;1.38;;
9388;SDS011;4734;52.778;6.798;2022-09-09T15:41:31;4.70;;;1.52;;
9388;SDS011;4734;52.778;6.798;2022-09-09T15:44:17;3.78;;;1.90;;
9388;SDS011;4734;52.778;6.798;2022-09-09T15:47:04;2.08;;;1.48;;
9388;SDS011;4734;52.778;6.798;2022-09-09T15:49:50;3.50;;;1.67;;
9388;SDS011;4734;52.778;6.798;2022-09-09T15:52:36;2.00;;;1.50;;
9388;SDS011;4734;52.778;6.798;2022-09-09T15:55:22;2.67;;;1.50;;
9388;SDS011;4734;52.778;6.798;2022-09-09T15:58:08;2.25;;;1.33;;
9388;SDS011;4734;52.778;6.798;2022-09-09T16:01:00;2.22;;;1.50;;
9388;SDS011;4734;52.778;6.798;2022-09-09T16:03:47;2.42;;;1.63;;
9388;SDS011;4734;52.778;6.798;2022-09-09T16:06:34;3.47;;;1.45;;
9388;SDS011;4734;52.778;6.798;2022-09-09T16:09:20;4.80;;;1.73;;
9388;SDS011;4734;52.778;6.798;2022-09-09T16:12:06;3.53;;;1.70;;
9388;SDS011;4734;52.778;6.798;2022-09-09T16:14:53;3.45;;;1.67;;
9388;SDS011;4734;52.778;6.798;2022-09-09T16:17:39;2.72;;;1.65;;
9388;SDS011;4734;52.778;6.798;2022-09-09T16:20:26;2.92;;;1.80;;
9388;SDS011;4734;52.778;6.798;2022-09-09T16:23:12;2.28;;;1.50;;
9388;SDS011;4734;52.778;6.798;2022-09-09T16:25:57;3.42;;;1.75;;
9388;SDS011;4734;52.778;6.798;2022-09-09T16:28:44;3.58;;;1.73;;
9388;SDS011;4734;52.778;6.798;2022-09-09T16:31:31;2.88;;;1.70;;
9388;SDS011;4734;52.778;6.798;2022-09-09T16:34:17;2.30;;;1.73;;
9388;SDS011;4734;52.778;6.798;2022-09-09T16:37:04;5.95;;;1.83;;
9388;SDS011;4734;52.778;6.798;2022-09-09T16:39:50;2.97;;;1.75;;
9388;SDS011;4734;52.778;6.798;2022-09-09T16:42:38;4.60;;;2.08;;
9388;SDS011;4734;52.778;6.798;2022-09-09T16:45:23;3.83;;;1.40;;
9388;SDS011;4734;52.778;6.798;2022-09-09T16:48:09;4.05;;;1.60;;
9388;SDS011;4734;52.778;6.798;2022-09-09T16:51:00;2.72;;;1.83;;
9388;SDS011;4734;52.778;6.798;2022-09-09T16:53:47;4.50;;;2.22;;
9388;SDS011;4734;52.778;6.798;2022-09-09T16:56:34;3.00;;;1.63;;
9388;SDS011;4734;52.778;6.798;2022-09-09T16:59:21;2.55;;;1.70;;
9388;SDS011;4734;52.778;6.798;2022-09-09T17:02:07;2.38;;;1.45;;
9388;SDS011;4734;52.778;6.798;2022-09-09T17:04:53;2.58;;;1.58;;
9388;SDS011;4734;52.778;6.798;2022-09-09T17:10:50;3.05;;;1.65;;
9388;SDS011;4734;52.778;6.798;2022-09-09T17:13:36;1.92;;;1.40;;
9388;SDS011;4734;52.778;6.798;2022-09-09T17:16:23;2.40;;;1.05;;
9388;SDS011;4734;52.778;6.798;2022-09-09T17:19:11;3.88;;;1.40;;
9388;SDS011;4734;52.778;6.798;2022-09-09T17:21:57;3.72;;;1.58;;
9388;SDS011;4734;52.778;6.798;2022-09-09T17:24:43;4.35;;;1.33;;
9388;SDS011;4734;52.778;6.798;2022-09-09T17:27:30;2.90;;;1.40;;
9388;SDS011;4734;52.778;6.798;2022-09-09T17:30:16;3.47;;;1.40;;
9388;SDS011;4734;52.778;6.798;2022-09-09T17:33:02;2.47;;;1.35;;
9388;SDS011;4734;52.778;6.798;2022-09-09T17:35:48;1.63;;;1.13;;
9388;SDS011;4734;52.778;6.798;2022-09-09T17:38:34;1.65;;;1.20;;